sensor_id;sensor_type;location;lat;lon;timestamp;pressure;altitude;pressure_sealevel;temperature;humidity
5138;BME280;53959;53.626;11.410;2024-02-23T00:01:23;146764.00;;;12.41;100.00
5138;BME280;53959;53.626;11.410;2024-02-23T00:03:49;146793.00;;;12.53;100.00
5138;BME280;53959;53.626;11.410;2024-02-23T00:06:14;146712.25;;;12.21;100.00
5138;BME280;53959;53.626;11.410;2024-02-23T00:08:39;145658.97;;;12.14;100.00
5138;BME280;53959;53.626;11.410;2024-02-23T00:11:06;143892.81;;;11.97;100.00
5138;BME280;53959;53.626;11.410;2024-02-23T00:13:31;142135.75;;;11.83;100.00
5138;BME280;53959;53.626;11.410;2024-02-23T00:15:57;139367.53;;;11.78;100.00
5138;BME280;53959;53.626;11.410;2024-02-23T00:18:22;136601.94;;;11.73;100.00
5138;BME280;53959;53.626;11.410;2024-02-23T00:20:47;133498.66;;;11.70;100.00
5138;BME280;53959;53.626;11.410;2024-02-23T00:23:12;129702.72;;;11.62;100.00
5138;BME280;53959;53.626;11.410;2024-02-23T00:25:38;124530.69;;;11.50;100.00
5138;BME280;53959;53.626;11.410;2024-02-23T00:28:03;117321.72;;;11.40;100.00
5138;BME280;53959;53.626;11.410;2024-02-23T00:30:29;107769.47;;;11.47;100.00
5138;BME280;53959;53.626;11.410;2024-02-23T00:32:54;96068.84;;;11.26;100.00
5138;BME280;53959;53.626;11.410;2024-02-23T00:35:19;87089.34;;;11.39;100.00
5138;BME280;53959;53.626;11.410;2024-02-23T00:37:45;71646.91;;;11.35;100.00
5138;BME280;53959;53.626;11.410;2024-02-23T00:40:10;59973.84;;;11.16;100.00
5138;BME280;53959;53.626;11.410;2024-02-23T00:42:36;51089.75;;;11.42;100.00
5138;BME280;53959;53.626;11.410;2024-02-23T00:45:02;39266.06;;;11.21;100.00
5138;BME280;53959;53.626;11.410;2024-02-23T00:47:27;32155.44;;;11.38;100.00
5138;BME280;53959;53.626;11.410;2024-02-23T00:49:53;25781.72;;;11.24;100.00
5138;BME280;53959;53.626;11.410;2024-02-23T00:52:18;18867.94;;;11.36;100.00
5138;BME280;53959;53.626;11.410;2024-02-23T00:54:43;12188.94;;;11.41;100.00
5138;BME280;53959;53.626;11.410;2024-02-23T00:57:09;4207.72;;;11.18;100.00
5138;BME280;53959;53.626;11.410;2024-02-23T00:59:34;-1670.19;;;11.15;100.00
5138;BME280;53959;53.626;11.410;2024-02-23T01:01:59;-5693.53;;;11.31;100.00
5138;BME280;53959;53.626;11.410;2024-02-23T01:04:25;-7321.56;;;11.36;100.00
5138;BME280;53959;53.626;11.410;2024-02-23T01:06:51;-7577.06;;;11.50;100.00
5138;BME280;53959;53.626;11.410;2024-02-23T01:09:16;-10059.41;;;11.22;100.00
5138;BME280;53959;53.626;11.410;2024-02-23T01:11:48;-11499.63;;;11.21;100.00
5138;BME280;53959;53.626;11.410;2024-02-23T01:14:14;-12291.88;;;11.24;100.00
5138;BME280;53959;53.626;11.410;2024-02-23T01:16:39;-13059.22;;;11.34;100.00
5138;BME280;53959;53.626;11.410;2024-02-23T01:19:05;-14770.16;;;11.13;100.00
5138;BME280;53959;53.626;11.410;2024-02-23T01:21:30;-15352.81;;;11.11;100.00
5138;BME280;53959;53.626;11.410;2024-02-23T01:23:55;-17073.69;;;11.02;100.00
5138;BME280;53959;53.626;11.410;2024-02-23T01:26:23;-18112.22;;;10.87;100.00
5138;BME280;53959;53.626;11.410;2024-02-23T01:28:48;-19186.44;;;10.86;100.00
5138;BME280;53959;53.626;11.410;2024-02-23T01:31:13;-19991.50;;;10.86;100.00
5138;BME280;53959;53.626;11.410;2024-02-23T01:33:39;-21973.06;;;10.80;100.00
5138;BME280;53959;53.626;11.410;2024-02-23T01:36:05;-22468.22;;;10.92;100.00
5138;BME280;53959;53.626;11.410;2024-02-23T01:38:31;-23373.84;;;10.88;100.00
5138;BME280;53959;53.626;11.410;2024-02-23T01:40:58;-24419.63;;;10.67;100.00
5138;BME280;53959;53.626;11.410;2024-02-23T01:43:24;-24749.75;;;10.84;100.00
5138;BME280;53959;53.626;11.410;2024-02-23T01:45:53;-25513.69;;;11.04;100.00
5138;BME280;53959;53.626;11.410;2024-02-23T01:48:19;-25657.66;;;10.68;100.00
5138;BME280;53959;53.626;11.410;2024-02-23T01:50:44;-25668.69;;;11.02;100.00
5138;BME280;53959;53.626;11.410;2024-02-23T01:53:10;-25656.63;;;10.65;100.00
5138;BME280;53959;53.626;11.410;2024-02-23T01:55:37;-25655.81;;;10.63;100.00
5138;BME280;53959;53.626;11.410;2024-02-23T01:58:05;-25658.47;;;10.71;100.00
5138;BME280;53959;53.626;11.410;2024-02-23T02:00:30;-25656.63;;;10.65;100.00
5138;BME280;53959;53.626;11.410;2024-02-23T02:02:56;-25650.94;;;10.48;100.00
5138;BME280;53959;53.626;11.410;2024-02-23T02:05:22;-25662.31;;;10.83;100.00
5138;BME280;53959;53.626;11.410;2024-02-23T02:07:49;-25657.47;;;10.68;100.00
5138;BME280;53959;53.626;11.410;2024-02-23T02:10:20;-25655.81;;;10.63;100.00
5138;BME280;53959;53.626;11.410;2024-02-23T02:12:46;-25650.28;;;10.46;100.00
5138;BME280;53959;53.626;11.410;2024-02-23T02:15:11;-25650.94;;;10.48;100.00
5138;BME280;53959;53.626;11.410;2024-02-23T02:17:36;-25655.47;;;10.62;100.00
5138;BME280;53959;53.626;11.410;2024-02-23T02:20:03;-25662.66;;;10.84;100.00
5138;BME280;53959;53.626;11.410;2024-02-23T02:22:32;-25654.47;;;10.59;100.00
5138;BME280;53959;53.626;11.410;2024-02-23T02:24:58;-25651.63;;;10.50;100.00
5138;BME280;53959;53.626;11.410;2024-02-23T02:27:24;-25654.47;;;10.59;100.00
5138;BME280;53959;53.626;11.410;2024-02-23T02:29:52;-25647.25;;;10.37;100.00
5138;BME280;53959;53.626;11.410;2024-02-23T02:32:17;-25629.34;;;9.82;100.00
5138;BME280;53959;53.626;11.410;2024-02-23T02:34:43;-24765.06;;;9.45;100.00
5138;BME280;53959;53.626;11.410;2024-02-23T02:37:09;-22484.63;;;9.58;100.00
5138;BME280;53959;53.626;11.410;2024-02-23T02:39:34;-21311.53;;;9.39;100.00
5138;BME280;53959;53.626;11.410;2024-02-23T02:41:59;-18179.94;;;8.85;100.00
5138;BME280;53959;53.626;11.410;2024-02-23T02:44:25;-11006.88;;;8.91;100.00
5138;BME280;53959;53.626;11.410;2024-02-23T02:46:51;-7838.53;;;8.42;100.00
5138;BME280;53959;53.626;11.410;2024-02-23T02:49:17;-3345.06;;;8.54;100.00
5138;BME280;53959;53.626;11.410;2024-02-23T02:51:42;-2116.41;;;8.29;100.00
5138;BME280;53959;53.626;11.410;2024-02-23T02:54:08;-542.91;;;8.61;100.00
5138;BME280;53959;53.626;11.410;2024-02-23T02:56:33;-1498.63;;;8.60;100.00
5138;BME280;53959;53.626;11.410;2024-02-23T02:58:58;-1023.25;;;8.62;100.00
5138;BME280;53959;53.626;11.410;2024-02-23T03:01:24;-566.53;;;8.54;100.00
5138;BME280;53959;53.626;11.410;2024-02-23T03:03:49;1844.66;;;8.59;100.00
5138;BME280;53959;53.626;11.410;2024-02-23T03:06:14;3734.72;;;8.38;100.00
5138;BME280;53959;53.626;11.410;2024-02-23T03:08:41;7275.44;;;8.12;100.00
5138;BME280;53959;53.626;11.410;2024-02-23T03:11:07;13564.81;;;8.09;100.00
5138;BME280;53959;53.626;11.410;2024-02-23T03:13:32;18514.22;;;8.03;100.00
5138;BME280;53959;53.626;11.410;2024-02-23T03:15:57;21535.72;;;7.96;100.00
5138;BME280;53959;53.626;11.410;2024-02-23T03:18:23;24393.56;;;7.93;100.00
5138;BME280;53959;53.626;11.410;2024-02-23T03:20:48;27795.66;;;8.08;100.00
5138;BME280;53959;53.626;11.410;2024-02-23T03:23:13;28145.81;;;7.99;100.00
5138;BME280;53959;53.626;11.410;2024-02-23T03:25:39;29256.19;;;7.98;100.00
5138;BME280;53959;53.626;11.410;2024-02-23T03:28:04;28760.16;;;7.95;100.00
5138;BME280;53959;53.626;11.410;2024-02-23T03:30:30;30223.25;;;7.99;100.00
5138;BME280;53959;53.626;11.410;2024-02-23T03:32:55;32891.66;;;8.19;100.00
5138;BME280;53959;53.626;11.410;2024-02-23T03:35:20;32558.88;;;8.04;100.00
5138;BME280;53959;53.626;11.410;2024-02-23T03:37:46;34177.50;;;8.09;100.00
5138;BME280;53959;53.626;11.410;2024-02-23T03:40:11;38458.78;;;8.14;100.00
5138;BME280;53959;53.626;11.410;2024-02-23T03:42:37;42745.34;;;7.97;100.00
5138;BME280;53959;53.626;11.410;2024-02-23T03:45:04;47011.78;;;7.71;100.00
5138;BME280;53959;53.626;11.410;2024-02-23T03:47:30;49933.66;;;7.71;100.00
5138;BME280;53959;53.626;11.410;2024-02-23T03:49:55;50322.66;;;7.49;100.00
5138;BME280;53959;53.626;11.410;2024-02-23T03:52:20;51390.28;;;7.51;100.00
5138;BME280;53959;53.626;11.410;2024-02-23T03:54:45;54687.00;;;7.75;100.00
5138;BME280;53959;53.626;11.410;2024-02-23T03:57:11;53684.59;;;7.52;100.00
5138;BME280;53959;53.626;11.410;2024-02-23T03:59:37;55558.53;;;7.51;100.00
5138;BME280;53959;53.626;11.410;2024-02-23T04:02:03;56622.50;;;7.48;100.00
5138;BME280;53959;53.626;11.410;2024-02-23T04:04:29;57588.00;;;7.48;100.00
5138;BME280;53959;53.626;11.410;2024-02-23T04:06:54;58838.84;;;7.46;100.00
5138;BME280;53959;53.626;11.410;2024-02-23T04:09:19;61505.97;;;7.69;100.00
5138;BME280;53959;53.626;11.410;2024-02-23T04:11:47;58440.50;;;7.37;100.00
5138;BME280;53959;53.626;11.410;2024-02-23T04:14:13;58216.03;;;7.37;100.00
5138;BME280;53959;53.626;11.410;2024-02-23T04:16:38;59580.38;;;7.46;100.00
5138;BME280;53959;53.626;11.410;2024-02-23T04:19:03;58898.34;;;7.43;100.00
5138;BME280;53959;53.626;11.410;2024-02-23T04:21:29;58095.41;;;7.44;100.00
5138;BME280;53959;53.626;11.410;2024-02-23T04:23:54;56581.06;;;7.38;100.00
5138;BME280;53959;53.626;11.410;2024-02-23T04:26:20;56160.50;;;7.40;100.00
5138;BME280;53959;53.626;11.410;2024-02-23T04:28:45;55590.69;;;7.34;100.00
5138;BME280;53959;53.626;11.410;2024-02-23T04:31:11;65145.22;;;8.91;100.00
5138;BME280;53959;53.626;11.410;2024-02-23T04:33:37;55837.19;;;8.10;100.00
5138;BME280;53959;53.626;11.410;2024-02-23T04:36:03;53969.72;;;8.66;100.00
5138;BME280;53959;53.626;11.410;2024-02-23T04:38:30;45590.66;;;7.35;100.00
5138;BME280;53959;53.626;11.410;2024-02-23T04:40:56;49255.91;;;7.47;100.00
5138;BME280;53959;53.626;11.410;2024-02-23T04:43:22;46436.19;;;7.17;100.00
5138;BME280;53959;53.626;11.410;2024-02-23T04:45:48;49961.59;;;7.50;100.00
5138;BME280;53959;53.626;11.410;2024-02-23T04:48:13;47658.78;;;7.17;100.00
5138;BME280;53959;53.626;11.410;2024-02-23T04:50:39;50891.84;;;7.24;100.00
5138;BME280;53959;53.626;11.410;2024-02-23T04:53:04;55034.94;;;7.49;100.00
5138;BME280;53959;53.626;11.410;2024-02-23T04:55:29;53804.50;;;7.11;100.00
5138;BME280;53959;53.626;11.410;2024-02-23T04:57:55;55720.59;;;7.09;100.00
5138;BME280;53959;53.626;11.410;2024-02-23T05:00:21;56479.91;;;7.04;100.00
5138;BME280;53959;53.626;11.410;2024-02-23T05:02:46;58180.66;;;7.10;100.00
5138;BME280;53959;53.626;11.410;2024-02-23T05:05:11;56128.91;;;6.79;100.00
5138;BME280;53959;53.626;11.410;2024-02-23T05:07:37;56688.53;;;6.84;100.00
5138;BME280;53959;53.626;11.410;2024-02-23T05:10:03;55911.63;;;6.78;100.00
5138;BME280;53959;53.626;11.410;2024-02-23T05:12:29;55546.34;;;6.67;100.00
5138;BME280;53959;53.626;11.410;2024-02-23T05:14:54;56552.03;;;6.64;100.00
5138;BME280;53959;53.626;11.410;2024-02-23T05:17:20;57385.41;;;6.64;100.00
5138;BME280;53959;53.626;11.410;2024-02-23T05:19:45;58769.03;;;6.68;100.00
5138;BME280;53959;53.626;11.410;2024-02-23T05:22:12;59774.47;;;6.62;100.00
5138;BME280;53959;53.626;11.410;2024-02-23T05:24:37;60629.06;;;6.66;100.00
5138;BME280;53959;53.626;11.410;2024-02-23T05:27:03;62298.13;;;6.68;100.00
5138;BME280;53959;53.626;11.410;2024-02-23T05:29:28;62492.66;;;6.57;100.00
5138;BME280;53959;53.626;11.410;2024-02-23T05:31:54;62320.84;;;6.31;100.00
5138;BME280;53959;53.626;11.410;2024-02-23T05:34:20;66485.41;;;6.62;100.00
5138;BME280;53959;53.626;11.410;2024-02-23T05:36:46;67375.00;;;6.58;100.00
5138;BME280;53959;53.626;11.410;2024-02-23T05:39:13;68118.56;;;6.52;100.00
5138;BME280;53959;53.626;11.410;2024-02-23T05:41:38;69323.91;;;6.59;100.00
5138;BME280;53959;53.626;11.410;2024-02-23T05:44:04;71067.03;;;6.64;100.00
5138;BME280;53959;53.626;11.410;2024-02-23T05:46:39;70384.91;;;6.63;100.00
5138;BME280;53959;53.626;11.410;2024-02-23T05:49:05;70357.00;;;6.70;100.00
5138;BME280;53959;53.626;11.410;2024-02-23T05:51:30;68379.78;;;6.54;100.00
5138;BME280;53959;53.626;11.410;2024-02-23T05:53:57;68985.09;;;6.53;100.00
5138;BME280;53959;53.626;11.410;2024-02-23T05:56:22;69652.81;;;6.59;100.00
5138;BME280;53959;53.626;11.410;2024-02-23T05:58:50;68907.53;;;6.59;100.00
5138;BME280;53959;53.626;11.410;2024-02-23T06:01:15;67696.50;;;6.58;100.00
5138;BME280;53959;53.626;11.410;2024-02-23T06:03:41;68407.16;;;6.75;100.00
5138;BME280;53959;53.626;11.410;2024-02-23T06:06:07;65129.66;;;6.43;100.00
5138;BME280;53959;53.626;11.410;2024-02-23T06:08:33;64954.09;;;6.47;100.00
5138;BME280;53959;53.626;11.410;2024-02-23T06:10:58;67301.28;;;6.69;100.00
5138;BME280;53959;53.626;11.410;2024-02-23T06:13:25;65827.31;;;6.69;100.00
5138;BME280;53959;53.626;11.410;2024-02-23T06:15:50;65448.78;;;6.71;100.00
5138;BME280;53959;53.626;11.410;2024-02-23T06:18:15;64716.69;;;6.75;100.00
5138;BME280;53959;53.626;11.410;2024-02-23T06:20:41;62512.88;;;6.71;100.00
5138;BME280;53959;53.626;11.410;2024-02-23T06:23:07;61845.38;;;6.74;100.00
5138;BME280;53959;53.626;11.410;2024-02-23T06:25:32;62522.25;;;6.87;100.00
5138;BME280;53959;53.626;11.410;2024-02-23T06:27:57;61394.13;;;6.79;100.00
5138;BME280;53959;53.626;11.410;2024-02-23T06:30:23;61079.53;;;6.82;100.00
5138;BME280;53959;53.626;11.410;2024-02-23T06:32:48;60480.34;;;6.81;100.00
5138;BME280;53959;53.626;11.410;2024-02-23T06:35:13;60619.53;;;6.77;100.00
5138;BME280;53959;53.626;11.410;2024-02-23T06:37:39;59175.88;;;6.73;100.00
5138;BME280;53959;53.626;11.410;2024-02-23T06:40:05;59823.34;;;6.79;100.00
5138;BME280;53959;53.626;11.410;2024-02-23T06:42:32;58570.38;;;6.73;100.00
5138;BME280;53959;53.626;11.410;2024-02-23T06:44:58;58997.16;;;6.92;100.00
5138;BME280;53959;53.626;11.410;2024-02-23T06:47:23;57472.38;;;7.01;100.00
5138;BME280;53959;53.626;11.410;2024-02-23T06:49:50;54617.06;;;6.84;100.00
5138;BME280;53959;53.626;11.410;2024-02-23T06:52:15;55923.00;;;7.05;100.00
5138;BME280;53959;53.626;11.410;2024-02-23T06:54:41;52067.00;;;6.77;100.00
5138;BME280;53959;53.626;11.410;2024-02-23T06:57:06;53342.63;;;6.88;100.00
5138;BME280;53959;53.626;11.410;2024-02-23T06:59:32;51596.34;;;6.83;100.00
5138;BME280;53959;53.626;11.410;2024-02-23T07:01:57;50057.94;;;6.76;100.00
5138;BME280;53959;53.626;11.410;2024-02-23T07:04:23;49120.38;;;6.96;100.00
5138;BME280;53959;53.626;11.410;2024-02-23T07:06:48;47327.94;;;6.79;100.00
5138;BME280;53959;53.626;11.410;2024-02-23T07:09:13;46370.41;;;6.75;100.00
5138;BME280;53959;53.626;11.410;2024-02-23T07:11:39;47035.44;;;6.87;100.00
5138;BME280;53959;53.626;11.410;2024-02-23T07:14:06;44310.09;;;6.71;100.00
5138;BME280;53959;53.626;11.410;2024-02-23T07:16:32;43855.75;;;6.71;100.00
5138;BME280;53959;53.626;11.410;2024-02-23T07:18:57;43211.28;;;6.87;100.00
5138;BME280;53959;53.626;11.410;2024-02-23T07:21:23;42823.34;;;6.95;100.00
5138;BME280;53959;53.626;11.410;2024-02-23T07:23:48;42121.97;;;7.05;100.00
5138;BME280;53959;53.626;11.410;2024-02-23T07:26:13;40546.91;;;7.13;100.00
5138;BME280;53959;53.626;11.410;2024-02-23T07:28:39;37754.16;;;7.03;100.00
5138;BME280;53959;53.626;11.410;2024-02-23T07:31:04;37151.19;;;6.89;100.00
5138;BME280;53959;53.626;11.410;2024-02-23T07:33:30;35135.19;;;6.89;100.00
5138;BME280;53959;53.626;11.410;2024-02-23T07:35:55;35403.13;;;7.02;100.00
5138;BME280;53959;53.626;11.410;2024-02-23T07:38:20;32049.44;;;6.93;100.00
5138;BME280;53959;53.626;11.410;2024-02-23T07:40:46;32779.72;;;7.24;100.00
5138;BME280;53959;53.626;11.410;2024-02-23T07:43:11;30601.84;;;7.14;100.00
5138;BME280;53959;53.626;11.410;2024-02-23T07:45:37;29287.28;;;7.18;100.00
5138;BME280;53959;53.626;11.410;2024-02-23T07:48:03;28198.19;;;7.17;100.00
5138;BME280;53959;53.626;11.410;2024-02-23T07:50:29;27359.03;;;7.24;100.00
5138;BME280;53959;53.626;11.410;2024-02-23T07:52:54;25106.84;;;7.12;100.00
5138;BME280;53959;53.626;11.410;2024-02-23T07:55:19;22913.06;;;7.09;100.00
5138;BME280;53959;53.626;11.410;2024-02-23T07:57:44;21331.91;;;7.11;100.00
5138;BME280;53959;53.626;11.410;2024-02-23T08:00:10;20015.09;;;7.14;100.00
5138;BME280;53959;53.626;11.410;2024-02-23T08:02:39;19434.00;;;7.32;100.00
5138;BME280;53959;53.626;11.410;2024-02-23T08:05:06;18040.63;;;7.44;100.00
5138;BME280;53959;53.626;11.410;2024-02-23T08:07:32;15337.97;;;7.49;100.00
5138;BME280;53959;53.626;11.410;2024-02-23T08:09:57;11846.78;;;7.46;100.00
5138;BME280;53959;53.626;11.410;2024-02-23T08:12:22;9222.72;;;7.49;100.00
5138;BME280;53959;53.626;11.410;2024-02-23T08:14:48;8457.47;;;7.67;100.00
5138;BME280;53959;53.626;11.410;2024-02-23T08:17:15;6813.75;;;7.65;100.00
5138;BME280;53959;53.626;11.410;2024-02-23T08:19:41;3275.72;;;7.50;100.00
5138;BME280;53959;53.626;11.410;2024-02-23T08:22:06;1271.28;;;7.54;100.00
5138;BME280;53959;53.626;11.410;2024-02-23T08:24:31;-305.63;;;7.68;100.00
5138;BME280;53959;53.626;11.410;2024-02-23T08:26:57;-2075.03;;;7.78;100.00
5138;BME280;53959;53.626;11.410;2024-02-23T08:29:22;-4367.16;;;7.77;100.00
5138;BME280;53959;53.626;11.410;2024-02-23T08:31:48;-5768.91;;;7.86;100.00
5138;BME280;53959;53.626;11.410;2024-02-23T08:34:13;-9191.97;;;7.75;100.00
5138;BME280;53959;53.626;11.410;2024-02-23T08:36:38;-9240.16;;;8.06;100.00
5138;BME280;53959;53.626;11.410;2024-02-23T08:39:03;-11052.28;;;8.05;100.00
5138;BME280;53959;53.626;11.410;2024-02-23T08:41:29;-12739.44;;;7.95;100.00
5138;BME280;53959;53.626;11.410;2024-02-23T08:43:54;-14059.97;;;8.04;100.00
5138;BME280;53959;53.626;11.410;2024-02-23T08:46:21;-14578.38;;;8.18;100.00
5138;BME280;53959;53.626;11.410;2024-02-23T08:48:46;-15988.09;;;8.25;100.00
5138;BME280;53959;53.626;11.410;2024-02-23T08:51:12;-19193.19;;;7.99;100.00
5138;BME280;53959;53.626;11.410;2024-02-23T08:53:37;-19433.16;;;8.22;100.00
5138;BME280;53959;53.626;11.410;2024-02-23T08:56:03;-21487.19;;;8.11;100.00
5138;BME280;53959;53.626;11.410;2024-02-23T08:58:28;-22427.31;;;8.07;100.00
5138;BME280;53959;53.626;11.410;2024-02-23T09:00:54;-23243.19;;;8.16;100.00
5138;BME280;53959;53.626;11.410;2024-02-23T09:03:19;-23499.81;;;8.30;100.00
5138;BME280;53959;53.626;11.410;2024-02-23T09:05:44;-24366.75;;;8.22;100.00
5138;BME280;53959;53.626;11.410;2024-02-23T09:08:12;-24512.50;;;8.56;100.00
5138;BME280;53959;53.626;11.410;2024-02-23T09:10:37;-25466.16;;;8.56;100.00
5138;BME280;53959;53.626;11.410;2024-02-23T09:13:02;-25579.84;;;8.32;100.00
5138;BME280;53959;53.626;11.410;2024-02-23T09:15:28;-25584.38;;;8.45;100.00
5138;BME280;53959;53.626;11.410;2024-02-23T09:17:53;-25582.38;;;8.39;100.00
5138;BME280;53959;53.626;11.410;2024-02-23T09:20:19;-25591.75;;;8.68;100.00
5138;BME280;53959;53.626;11.410;2024-02-23T09:22:44;-25583.72;;;8.43;100.00
5138;BME280;53959;53.626;11.410;2024-02-23T09:25:09;-25588.75;;;8.59;100.00
5138;BME280;53959;53.626;11.410;2024-02-23T09:27:35;-25587.06;;;8.54;100.00
5138;BME280;53959;53.626;11.410;2024-02-23T09:30:04;-25595.78;;;8.80;100.00
5138;BME280;53959;53.626;11.410;2024-02-23T09:32:29;-25583.38;;;8.42;100.00
5138;BME280;53959;53.626;11.410;2024-02-23T09:34:55;-25584.38;;;8.45;100.00
5138;BME280;53959;53.626;11.410;2024-02-23T09:37:20;-25593.63;;;8.73;100.00
5138;BME280;53959;53.626;11.410;2024-02-23T09:39:46;-25588.41;;;8.58;100.00
5138;BME280;53959;53.626;11.410;2024-02-23T09:42:11;-25587.91;;;8.56;100.00
5138;BME280;53959;53.626;11.410;2024-02-23T09:44:37;-25584.88;;;8.47;100.00
5138;BME280;53959;53.626;11.410;2024-02-23T09:47:03;-25586.91;;;8.53;100.00
5138;BME280;53959;53.626;11.410;2024-02-23T09:49:39;-25593.09;;;8.72;100.00
5138;BME280;53959;53.626;11.410;2024-02-23T09:52:08;-25589.41;;;8.61;100.00
5138;BME280;53959;53.626;11.410;2024-02-23T09:54:37;-25587.06;;;8.54;100.00
5138;BME280;53959;53.626;11.410;2024-02-23T09:57:07;-25594.28;;;8.75;100.00
5138;BME280;53959;53.626;11.410;2024-02-23T09:59:33;-25591.94;;;8.68;100.00
5138;BME280;53959;53.626;11.410;2024-02-23T10:01:59;-25594.97;;;8.78;100.00
5138;BME280;53959;53.626;11.410;2024-02-23T10:04:25;-25603.34;;;9.03;100.00
5138;BME280;53959;53.626;11.410;2024-02-23T10:06:54;-25607.69;;;9.16;100.00
5138;BME280;53959;53.626;11.410;2024-02-23T10:09:19;-25604.34;;;9.06;100.00
5138;BME280;53959;53.626;11.410;2024-02-23T10:11:52;-25609.72;;;9.22;100.00
5138;BME280;53959;53.626;11.410;2024-02-23T10:14:17;-25601.16;;;8.96;100.00
5138;BME280;53959;53.626;11.410;2024-02-23T10:16:43;-25597.63;;;8.86;100.00
5138;BME280;53959;53.626;11.410;2024-02-23T10:19:08;-25606.88;;;9.14;100.00
5138;BME280;53959;53.626;11.410;2024-02-23T10:21:34;-25607.53;;;9.16;100.00
5138;BME280;53959;53.626;11.410;2024-02-23T10:23:59;-25603.50;;;9.04;100.00
5138;BME280;53959;53.626;11.410;2024-02-23T10:26:26;-25604.84;;;9.08;100.00
5138;BME280;53959;53.626;11.410;2024-02-23T10:28:51;-25605.69;;;9.10;100.00
5138;BME280;53959;53.626;11.410;2024-02-23T10:31:17;-25604.69;;;9.07;100.00
5138;BME280;53959;53.626;11.410;2024-02-23T10:33:44;-25608.03;;;9.17;100.00
5138;BME280;53959;53.626;11.410;2024-02-23T10:36:10;-25615.91;;;9.41;100.00
5138;BME280;53959;53.626;11.410;2024-02-23T10:38:38;-25614.25;;;9.36;100.00
5138;BME280;53959;53.626;11.410;2024-02-23T10:41:06;-25619.94;;;9.54;100.00
5138;BME280;53959;53.626;11.410;2024-02-23T10:43:41;-25614.25;;;9.36;100.00
5138;BME280;53959;53.626;11.410;2024-02-23T10:46:08;-25616.94;;;9.44;100.00
5138;BME280;53959;53.626;11.410;2024-02-23T10:48:40;-25620.28;;;9.55;100.00
5138;BME280;53959;53.626;11.410;2024-02-23T10:51:06;-25625.97;;;9.72;100.00
5138;BME280;53959;53.626;11.410;2024-02-23T10:53:34;-25624.13;;;9.66;100.00
5138;BME280;53959;53.626;11.410;2024-02-23T10:56:00;-25617.44;;;9.46;100.00
5138;BME280;53959;53.626;11.410;2024-02-23T10:58:26;-25624.97;;;9.69;100.00
5138;BME280;53959;53.626;11.410;2024-02-23T11:00:53;-25615.09;;;9.39;100.00
5138;BME280;53959;53.626;11.410;2024-02-23T11:03:24;-25610.06;;;9.23;100.00
5138;BME280;53959;53.626;11.410;2024-02-23T11:05:50;-25615.25;;;9.39;100.00
5138;BME280;53959;53.626;11.410;2024-02-23T11:08:18;-25614.06;;;9.36;100.00
5138;BME280;53959;53.626;11.410;2024-02-23T11:10:51;-25624.31;;;9.67;100.00
5138;BME280;53959;53.626;11.410;2024-02-23T11:13:35;-25621.63;;;9.59;100.00
5138;BME280;53959;53.626;11.410;2024-02-23T11:16:01;-25620.78;;;9.56;100.00
5138;BME280;53959;53.626;11.410;2024-02-23T11:18:29;-25614.59;;;9.37;100.00
5138;BME280;53959;53.626;11.410;2024-02-23T11:20:58;-25629.34;;;9.82;100.00
5138;BME280;53959;53.626;11.410;2024-02-23T11:23:24;-25626.97;;;9.75;100.00
5138;BME280;53959;53.626;11.410;2024-02-23T11:28:48;-25627.16;;;9.76;100.00
5138;BME280;53959;53.626;11.410;2024-02-23T11:31:15;-25631.00;;;9.87;100.00
5138;BME280;53959;53.626;11.410;2024-02-23T11:33:47;-25631.00;;;9.87;100.00
5138;BME280;53959;53.626;11.410;2024-02-23T11:36:12;-25644.91;;;10.30;100.00
5138;BME280;53959;53.626;11.410;2024-02-23T11:38:38;-25645.09;;;10.30;100.00
5138;BME280;53959;53.626;11.410;2024-02-23T11:41:04;-25639.38;;;10.13;100.00
5138;BME280;53959;53.626;11.410;2024-02-23T11:43:29;-25636.38;;;10.04;100.00
5138;BME280;53959;53.626;11.410;2024-02-23T11:45:55;-25648.94;;;10.42;100.00
5138;BME280;53959;53.626;11.410;2024-02-23T11:48:21;-25641.22;;;10.18;100.00
5138;BME280;53959;53.626;11.410;2024-02-23T11:50:50;-25646.94;;;10.36;100.00
5138;BME280;53959;53.626;11.410;2024-02-23T11:53:15;-25639.72;;;10.14;100.00
5138;BME280;53959;53.626;11.410;2024-02-23T11:55:41;-25638.03;;;10.09;100.00
5138;BME280;53959;53.626;11.410;2024-02-23T11:58:06;-25647.75;;;10.38;100.00
5138;BME280;53959;53.626;11.410;2024-02-23T12:00:32;-25639.72;;;10.14;100.00
5138;BME280;53959;53.626;11.410;2024-02-23T12:02:57;-25656.97;;;10.66;100.00
5138;BME280;53959;53.626;11.410;2024-02-23T12:05:23;-25656.31;;;10.64;100.00
5138;BME280;53959;53.626;11.410;2024-02-23T12:07:48;-25656.13;;;10.64;100.00
5138;BME280;53959;53.626;11.410;2024-02-23T12:10:13;-25649.78;;;10.44;100.00
5138;BME280;53959;53.626;11.410;2024-02-23T12:12:39;-25655.13;;;10.61;100.00
5138;BME280;53959;53.626;11.410;2024-02-23T12:15:06;-25649.09;;;10.42;100.00
5138;BME280;53959;53.626;11.410;2024-02-23T12:17:31;-25652.28;;;10.52;100.00
5138;BME280;53959;53.626;11.410;2024-02-23T12:20:00;-25645.09;;;10.30;100.00
5138;BME280;53959;53.626;11.410;2024-02-23T12:22:25;-25650.44;;;10.47;100.00
5138;BME280;53959;53.626;11.410;2024-02-23T12:24:50;-25665.00;;;10.91;100.00
5138;BME280;53959;53.626;11.410;2024-02-23T12:27:19;-25663.84;;;10.87;100.00
5138;BME280;53959;53.626;11.410;2024-02-23T12:29:54;-25663.16;;;10.85;100.00
5138;BME280;53959;53.626;11.410;2024-02-23T12:32:20;-25660.50;;;10.77;100.00
5138;BME280;53959;53.626;11.410;2024-02-23T12:34:46;-25661.81;;;10.81;100.00
5138;BME280;53959;53.626;11.410;2024-02-23T12:37:14;-25668.19;;;11.01;100.00
5138;BME280;53959;53.626;11.410;2024-02-23T12:39:39;-25675.06;;;11.22;100.00
5138;BME280;53959;53.626;11.410;2024-02-23T12:42:04;-25654.13;;;10.58;100.00
5138;BME280;53959;53.626;11.410;2024-02-23T12:44:30;-25669.53;;;11.05;100.00
5138;BME280;53959;53.626;11.410;2024-02-23T12:46:55;-25676.38;;;11.26;100.00
5138;BME280;53959;53.626;11.410;2024-02-23T12:49:20;-25680.25;;;11.37;100.00